sensor_id;sensor_type;location;lat;lon;timestamp;P1;durP1;ratioP1;P2;durP2;ratioP2
16642;SDS011;8435;52.184;5.406;2022-12-18T00:02:03;44.90;;;26.07;;
16642;SDS011;8435;52.184;5.406;2022-12-18T00:04:31;46.63;;;27.40;;
16642;SDS011;8435;52.184;5.406;2022-12-18T00:06:58;45.97;;;25.47;;
16642;SDS011;8435;52.184;5.406;2022-12-18T00:09:24;45.10;;;26.27;;
16642;SDS011;8435;52.184;5.406;2022-12-18T00:11:51;44.27;;;24.87;;
16642;SDS011;8435;52.184;5.406;2022-12-18T00:14:18;44.77;;;25.53;;
16642;SDS011;8435;52.184;5.406;2022-12-18T00:16:45;46.83;;;26.17;;
16642;SDS011;8435;52.184;5.406;2022-12-18T00:19:13;49.80;;;27.00;;
16642;SDS011;8435;52.184;5.406;2022-12-18T00:21:42;39.43;;;23.53;;
16642;SDS011;8435;52.184;5.406;2022-12-18T00:24:10;48.17;;;27.30;;
16642;SDS011;8435;52.184;5.406;2022-12-18T00:26:37;45.73;;;24.87;;
16642;SDS011;8435;52.184;5.406;2022-12-18T00:29:06;43.77;;;24.70;;
16642;SDS011;8435;52.184;5.406;2022-12-18T00:31:34;48.90;;;26.83;;
16642;SDS011;8435;52.184;5.406;2022-12-18T00:34:01;48.20;;;26.53;;
16642;SDS011;8435;52.184;5.406;2022-12-18T00:36:29;48.27;;;26.77;;
16642;SDS011;8435;52.184;5.406;2022-12-18T00:38:59;44.77;;;25.10;;
16642;SDS011;8435;52.184;5.406;2022-12-18T00:41:27;47.50;;;26.43;;
16642;SDS011;8435;52.184;5.406;2022-12-18T00:44:12;43.93;;;24.80;;
16642;SDS011;8435;52.184;5.406;2022-12-18T00:46:40;43.10;;;25.07;;
16642;SDS011;8435;52.184;5.406;2022-12-18T00:49:08;44.87;;;25.83;;
16642;SDS011;8435;52.184;5.406;2022-12-18T00:51:39;46.17;;;26.23;;
16642;SDS011;8435;52.184;5.406;2022-12-18T00:54:07;51.30;;;27.00;;
16642;SDS011;8435;52.184;5.406;2022-12-18T00:56:35;46.43;;;26.87;;
16642;SDS011;8435;52.184;5.406;2022-12-18T00:59:03;49.40;;;27.53;;
16642;SDS011;8435;52.184;5.406;2022-12-18T01:01:30;47.07;;;26.10;;
16642;SDS011;8435;52.184;5.406;2022-12-18T01:03:57;46.40;;;26.23;;
16642;SDS011;8435;52.184;5.406;2022-12-18T01:06:24;51.07;;;26.93;;
16642;SDS011;8435;52.184;5.406;2022-12-18T01:08:51;49.80;;;26.40;;
16642;SDS011;8435;52.184;5.406;2022-12-18T01:11:20;44.87;;;26.43;;
16642;SDS011;8435;52.184;5.406;2022-12-18T01:13:47;45.07;;;26.03;;
16642;SDS011;8435;52.184;5.406;2022-12-18T01:16:15;51.83;;;25.87;;
16642;SDS011;8435;52.184;5.406;2022-12-18T01:18:46;51.20;;;27.57;;
16642;SDS011;8435;52.184;5.406;2022-12-18T01:21:13;48.23;;;26.10;;
16642;SDS011;8435;52.184;5.406;2022-12-18T01:23:42;49.60;;;26.13;;
16642;SDS011;8435;52.184;5.406;2022-12-18T01:26:09;44.37;;;25.77;;
16642;SDS011;8435;52.184;5.406;2022-12-18T01:28:39;46.00;;;24.93;;
16642;SDS011;8435;52.184;5.406;2022-12-18T01:31:12;45.87;;;26.13;;
16642;SDS011;8435;52.184;5.406;2022-12-18T01:33:41;46.70;;;25.40;;
16642;SDS011;8435;52.184;5.406;2022-12-18T01:36:08;50.63;;;26.20;;
16642;SDS011;8435;52.184;5.406;2022-12-18T01:38:40;45.37;;;26.17;;
16642;SDS011;8435;52.184;5.406;2022-12-18T01:41:08;47.30;;;26.40;;
16642;SDS011;8435;52.184;5.406;2022-12-18T01:43:44;41.63;;;25.47;;
16642;SDS011;8435;52.184;5.406;2022-12-18T01:46:12;53.60;;;28.07;;
16642;SDS011;8435;52.184;5.406;2022-12-18T01:48:40;42.73;;;25.20;;
16642;SDS011;8435;52.184;5.406;2022-12-18T01:51:08;46.60;;;26.53;;
16642;SDS011;8435;52.184;5.406;2022-12-18T01:53:36;47.07;;;24.77;;
16642;SDS011;8435;52.184;5.406;2022-12-18T01:56:05;47.17;;;26.20;;
16642;SDS011;8435;52.184;5.406;2022-12-18T01:58:35;43.47;;;23.60;;
16642;SDS011;8435;52.184;5.406;2022-12-18T02:01:08;49.17;;;27.37;;
16642;SDS011;8435;52.184;5.406;2022-12-18T02:03:35;44.23;;;25.40;;
16642;SDS011;8435;52.184;5.406;2022-12-18T02:06:05;46.73;;;26.77;;
16642;SDS011;8435;52.184;5.406;2022-12-18T02:08:37;49.77;;;28.40;;
16642;SDS011;8435;52.184;5.406;2022-12-18T02:11:13;50.77;;;26.17;;
16642;SDS011;8435;52.184;5.406;2022-12-18T02:13:51;47.47;;;26.13;;
16642;SDS011;8435;52.184;5.406;2022-12-18T02:16:29;48.80;;;27.07;;
16642;SDS011;8435;52.184;5.406;2022-12-18T02:19:01;47.13;;;25.90;;
16642;SDS011;8435;52.184;5.406;2022-12-18T02:21:34;50.13;;;26.07;;
16642;SDS011;8435;52.184;5.406;2022-12-18T02:24:13;43.97;;;24.90;;
16642;SDS011;8435;52.184;5.406;2022-12-18T02:26:52;47.93;;;25.97;;
16642;SDS011;8435;52.184;5.406;2022-12-18T02:29:22;48.07;;;27.47;;
16642;SDS011;8435;52.184;5.406;2022-12-18T02:31:53;46.03;;;25.20;;
16642;SDS011;8435;52.184;5.406;2022-12-18T02:34:24;46.57;;;26.03;;
16642;SDS011;8435;52.184;5.406;2022-12-18T02:36:55;44.00;;;25.87;;
16642;SDS011;8435;52.184;5.406;2022-12-18T02:39:25;42.40;;;24.20;;
16642;SDS011;8435;52.184;5.406;2022-12-18T02:41:56;44.67;;;25.67;;
16642;SDS011;8435;52.184;5.406;2022-12-18T02:44:23;44.27;;;25.37;;
16642;SDS011;8435;52.184;5.406;2022-12-18T02:46:50;42.03;;;24.27;;
16642;SDS011;8435;52.184;5.406;2022-12-18T02:49:22;40.47;;;24.47;;
16642;SDS011;8435;52.184;5.406;2022-12-18T02:52:05;41.53;;;24.67;;
16642;SDS011;8435;52.184;5.406;2022-12-18T02:54:43;50.03;;;26.03;;
16642;SDS011;8435;52.184;5.406;2022-12-18T02:57:20;46.80;;;25.67;;
16642;SDS011;8435;52.184;5.406;2022-12-18T02:59:55;42.77;;;24.13;;
16642;SDS011;8435;52.184;5.406;2022-12-18T03:02:26;44.73;;;24.37;;
16642;SDS011;8435;52.184;5.406;2022-12-18T03:04:59;41.83;;;23.57;;
16642;SDS011;8435;52.184;5.406;2022-12-18T03:07:35;49.07;;;24.53;;
16642;SDS011;8435;52.184;5.406;2022-12-18T03:10:06;42.57;;;23.20;;
16642;SDS011;8435;52.184;5.406;2022-12-18T03:12:40;40.00;;;23.93;;
16642;SDS011;8435;52.184;5.406;2022-12-18T03:15:13;41.17;;;23.77;;
16642;SDS011;8435;52.184;5.406;2022-12-18T03:17:46;41.10;;;23.87;;
16642;SDS011;8435;52.184;5.406;2022-12-18T03:20:19;39.60;;;21.70;;
16642;SDS011;8435;52.184;5.406;2022-12-18T03:22:49;40.17;;;23.80;;
16642;SDS011;8435;52.184;5.406;2022-12-18T03:25:19;40.87;;;22.63;;
16642;SDS011;8435;52.184;5.406;2022-12-18T03:27:49;38.57;;;22.80;;
16642;SDS011;8435;52.184;5.406;2022-12-18T03:30:21;43.13;;;23.30;;
16642;SDS011;8435;52.184;5.406;2022-12-18T03:32:48;36.23;;;22.57;;
16642;SDS011;8435;52.184;5.406;2022-12-18T03:35:21;38.90;;;21.53;;
16642;SDS011;8435;52.184;5.406;2022-12-18T03:37:50;37.17;;;22.80;;
16642;SDS011;8435;52.184;5.406;2022-12-18T03:40:17;35.07;;;21.53;;
16642;SDS011;8435;52.184;5.406;2022-12-18T03:42:46;39.17;;;22.60;;
16642;SDS011;8435;52.184;5.406;2022-12-18T03:45:19;36.87;;;21.80;;
16642;SDS011;8435;52.184;5.406;2022-12-18T03:47:53;37.03;;;22.13;;
16642;SDS011;8435;52.184;5.406;2022-12-18T03:50:27;39.50;;;21.80;;
16642;SDS011;8435;52.184;5.406;2022-12-18T03:53:03;34.90;;;21.63;;
16642;SDS011;8435;52.184;5.406;2022-12-18T03:55:40;34.67;;;21.37;;
16642;SDS011;8435;52.184;5.406;2022-12-18T03:58:09;36.37;;;21.90;;
16642;SDS011;8435;52.184;5.406;2022-12-18T04:00:39;37.07;;;21.57;;
16642;SDS011;8435;52.184;5.406;2022-12-18T04:03:07;35.13;;;20.77;;
16642;SDS011;8435;52.184;5.406;2022-12-18T04:05:35;35.30;;;21.67;;
16642;SDS011;8435;52.184;5.406;2022-12-18T04:08:03;34.43;;;20.63;;
16642;SDS011;8435;52.184;5.406;2022-12-18T04:10:30;31.43;;;20.13;;
16642;SDS011;8435;52.184;5.406;2022-12-18T04:12:57;34.13;;;21.10;;
16642;SDS011;8435;52.184;5.406;2022-12-18T04:15:25;33.60;;;19.30;;
16642;SDS011;8435;52.184;5.406;2022-12-18T04:17:52;31.63;;;20.43;;
16642;SDS011;8435;52.184;5.406;2022-12-18T04:20:19;33.03;;;20.47;;
16642;SDS011;8435;52.184;5.406;2022-12-18T04:22:46;32.60;;;20.00;;
16642;SDS011;8435;52.184;5.406;2022-12-18T04:25:13;33.07;;;19.30;;
16642;SDS011;8435;52.184;5.406;2022-12-18T04:27:40;32.93;;;19.53;;
16642;SDS011;8435;52.184;5.406;2022-12-18T04:30:07;31.93;;;21.03;;
16642;SDS011;8435;52.184;5.406;2022-12-18T04:32:36;28.63;;;19.40;;
16642;SDS011;8435;52.184;5.406;2022-12-18T04:35:03;30.67;;;18.70;;
16642;SDS011;8435;52.184;5.406;2022-12-18T04:37:33;28.97;;;19.30;;
16642;SDS011;8435;52.184;5.406;2022-12-18T04:40:00;34.17;;;19.67;;
16642;SDS011;8435;52.184;5.406;2022-12-18T04:42:26;29.73;;;18.87;;
16642;SDS011;8435;52.184;5.406;2022-12-18T04:44:53;29.03;;;18.77;;
16642;SDS011;8435;52.184;5.406;2022-12-18T04:47:20;31.10;;;19.50;;
16642;SDS011;8435;52.184;5.406;2022-12-18T04:49:48;30.00;;;17.70;;
16642;SDS011;8435;52.184;5.406;2022-12-18T04:52:15;25.87;;;16.90;;
16642;SDS011;8435;52.184;5.406;2022-12-18T04:54:41;23.90;;;16.80;;
16642;SDS011;8435;52.184;5.406;2022-12-18T04:57:08;25.10;;;17.03;;
16642;SDS011;8435;52.184;5.406;2022-12-18T04:59:35;27.10;;;17.00;;
16642;SDS011;8435;52.184;5.406;2022-12-18T05:02:01;25.97;;;17.40;;
16642;SDS011;8435;52.184;5.406;2022-12-18T05:04:28;26.03;;;17.27;;
16642;SDS011;8435;52.184;5.406;2022-12-18T05:06:56;22.93;;;15.97;;
16642;SDS011;8435;52.184;5.406;2022-12-18T05:09:23;26.37;;;17.37;;
16642;SDS011;8435;52.184;5.406;2022-12-18T05:11:50;27.97;;;17.33;;
16642;SDS011;8435;52.184;5.406;2022-12-18T05:14:16;25.87;;;16.80;;
16642;SDS011;8435;52.184;5.406;2022-12-18T05:16:43;23.97;;;17.17;;
16642;SDS011;8435;52.184;5.406;2022-12-18T05:19:10;24.13;;;16.20;;
16642;SDS011;8435;52.184;5.406;2022-12-18T05:21:37;22.80;;;15.90;;
16642;SDS011;8435;52.184;5.406;2022-12-18T05:24:05;22.77;;;16.83;;
16642;SDS011;8435;52.184;5.406;2022-12-18T05:26:32;24.93;;;16.40;;
16642;SDS011;8435;52.184;5.406;2022-12-18T05:28:59;25.33;;;16.33;;
16642;SDS011;8435;52.184;5.406;2022-12-18T05:31:26;25.17;;;16.40;;
16642;SDS011;8435;52.184;5.406;2022-12-18T05:33:52;22.33;;;15.80;;
16642;SDS011;8435;52.184;5.406;2022-12-18T05:36:19;24.33;;;16.17;;
16642;SDS011;8435;52.184;5.406;2022-12-18T05:38:46;23.40;;;15.57;;
16642;SDS011;8435;52.184;5.406;2022-12-18T05:41:14;25.57;;;15.77;;
16642;SDS011;8435;52.184;5.406;2022-12-18T05:43:42;21.03;;;14.93;;
16642;SDS011;8435;52.184;5.406;2022-12-18T05:46:11;19.93;;;14.30;;
16642;SDS011;8435;52.184;5.406;2022-12-18T05:48:39;20.90;;;14.67;;
16642;SDS011;8435;52.184;5.406;2022-12-18T05:51:06;20.93;;;14.80;;
16642;SDS011;8435;52.184;5.406;2022-12-18T05:53:35;26.07;;;15.57;;
16642;SDS011;8435;52.184;5.406;2022-12-18T05:56:03;23.80;;;16.33;;
16642;SDS011;8435;52.184;5.406;2022-12-18T05:58:34;22.17;;;15.00;;
16642;SDS011;8435;52.184;5.406;2022-12-18T06:01:05;23.33;;;15.47;;
16642;SDS011;8435;52.184;5.406;2022-12-18T06:03:33;24.80;;;16.27;;
16642;SDS011;8435;52.184;5.406;2022-12-18T06:06:00;21.83;;;15.67;;
16642;SDS011;8435;52.184;5.406;2022-12-18T06:08:27;23.87;;;15.77;;
16642;SDS011;8435;52.184;5.406;2022-12-18T06:10:54;20.67;;;14.80;;
16642;SDS011;8435;52.184;5.406;2022-12-18T06:13:20;22.93;;;15.13;;
16642;SDS011;8435;52.184;5.406;2022-12-18T06:15:49;24.43;;;16.17;;
16642;SDS011;8435;52.184;5.406;2022-12-18T06:18:15;24.77;;;15.20;;
16642;SDS011;8435;52.184;5.406;2022-12-18T06:20:42;23.53;;;16.23;;
16642;SDS011;8435;52.184;5.406;2022-12-18T06:23:09;21.63;;;14.73;;
16642;SDS011;8435;52.184;5.406;2022-12-18T06:25:37;25.03;;;16.57;;
16642;SDS011;8435;52.184;5.406;2022-12-18T06:28:05;22.03;;;15.03;;
16642;SDS011;8435;52.184;5.406;2022-12-18T06:30:31;24.97;;;15.53;;
16642;SDS011;8435;52.184;5.406;2022-12-18T06:33:00;22.33;;;15.57;;
16642;SDS011;8435;52.184;5.406;2022-12-18T06:35:26;23.97;;;15.87;;
16642;SDS011;8435;52.184;5.406;2022-12-18T06:37:53;21.27;;;14.80;;
16642;SDS011;8435;52.184;5.406;2022-12-18T06:40:20;20.93;;;14.43;;
16642;SDS011;8435;52.184;5.406;2022-12-18T06:42:47;21.63;;;14.73;;
16642;SDS011;8435;52.184;5.406;2022-12-18T06:45:13;23.70;;;15.67;;
16642;SDS011;8435;52.184;5.406;2022-12-18T06:47:40;22.13;;;15.33;;
16642;SDS011;8435;52.184;5.406;2022-12-18T06:50:09;20.63;;;14.97;;
16642;SDS011;8435;52.184;5.406;2022-12-18T06:52:36;21.93;;;14.67;;
16642;SDS011;8435;52.184;5.406;2022-12-18T06:55:04;20.27;;;13.43;;
16642;SDS011;8435;52.184;5.406;2022-12-18T06:57:36;21.70;;;14.77;;
16642;SDS011;8435;52.184;5.406;2022-12-18T07:00:04;22.87;;;14.30;;
16642;SDS011;8435;52.184;5.406;2022-12-18T07:02:32;21.03;;;14.07;;
16642;SDS011;8435;52.184;5.406;2022-12-18T07:04:58;21.23;;;13.93;;
16642;SDS011;8435;52.184;5.406;2022-12-18T07:07:27;21.73;;;14.30;;
16642;SDS011;8435;52.184;5.406;2022-12-18T07:09:54;19.57;;;13.53;;
16642;SDS011;8435;52.184;5.406;2022-12-18T07:12:21;22.03;;;14.00;;
16642;SDS011;8435;52.184;5.406;2022-12-18T07:14:47;19.43;;;14.07;;
16642;SDS011;8435;52.184;5.406;2022-12-18T07:17:14;19.20;;;14.07;;
16642;SDS011;8435;52.184;5.406;2022-12-18T07:19:41;19.77;;;14.10;;
16642;SDS011;8435;52.184;5.406;2022-12-18T07:22:07;22.27;;;14.63;;
16642;SDS011;8435;52.184;5.406;2022-12-18T07:24:35;18.03;;;13.07;;
16642;SDS011;8435;52.184;5.406;2022-12-18T07:27:02;20.53;;;13.63;;
16642;SDS011;8435;52.184;5.406;2022-12-18T07:29:29;24.53;;;14.53;;
16642;SDS011;8435;52.184;5.406;2022-12-18T07:31:56;20.23;;;13.97;;
16642;SDS011;8435;52.184;5.406;2022-12-18T07:34:23;17.97;;;13.20;;
16642;SDS011;8435;52.184;5.406;2022-12-18T07:36:49;18.03;;;13.93;;
16642;SDS011;8435;52.184;5.406;2022-12-18T07:39:16;15.90;;;12.33;;
16642;SDS011;8435;52.184;5.406;2022-12-18T07:41:44;18.23;;;13.47;;
16642;SDS011;8435;52.184;5.406;2022-12-18T07:44:31;19.27;;;13.27;;
16642;SDS011;8435;52.184;5.406;2022-12-18T07:46:58;20.37;;;13.53;;
16642;SDS011;8435;52.184;5.406;2022-12-18T07:49:25;21.73;;;13.53;;
16642;SDS011;8435;52.184;5.406;2022-12-18T07:51:53;18.43;;;13.30;;
16642;SDS011;8435;52.184;5.406;2022-12-18T07:54:21;17.07;;;12.60;;
16642;SDS011;8435;52.184;5.406;2022-12-18T07:56:49;20.17;;;13.30;;
16642;SDS011;8435;52.184;5.406;2022-12-18T07:59:16;17.70;;;13.77;;
16642;SDS011;8435;52.184;5.406;2022-12-18T08:01:43;17.97;;;12.47;;
16642;SDS011;8435;52.184;5.406;2022-12-18T08:04:10;21.23;;;12.80;;
16642;SDS011;8435;52.184;5.406;2022-12-18T08:06:37;19.90;;;14.00;;
16642;SDS011;8435;52.184;5.406;2022-12-18T08:09:03;22.23;;;13.63;;
16642;SDS011;8435;52.184;5.406;2022-12-18T08:11:30;18.10;;;13.40;;
16642;SDS011;8435;52.184;5.406;2022-12-18T08:13:58;20.07;;;13.37;;
16642;SDS011;8435;52.184;5.406;2022-12-18T08:16:26;18.30;;;13.80;;
16642;SDS011;8435;52.184;5.406;2022-12-18T08:18:53;21.03;;;14.07;;
16642;SDS011;8435;52.184;5.406;2022-12-18T08:21:21;18.13;;;13.20;;
16642;SDS011;8435;52.184;5.406;2022-12-18T08:23:48;19.07;;;13.00;;
16642;SDS011;8435;52.184;5.406;2022-12-18T08:26:15;19.93;;;13.77;;
16642;SDS011;8435;52.184;5.406;2022-12-18T08:28:42;17.10;;;13.70;;
16642;SDS011;8435;52.184;5.406;2022-12-18T08:31:11;16.97;;;12.47;;
16642;SDS011;8435;52.184;5.406;2022-12-18T08:33:38;17.97;;;13.53;;
16642;SDS011;8435;52.184;5.406;2022-12-18T08:36:06;17.63;;;13.80;;
16642;SDS011;8435;52.184;5.406;2022-12-18T08:38:34;19.40;;;14.53;;
16642;SDS011;8435;52.184;5.406;2022-12-18T08:41:01;17.33;;;13.87;;
16642;SDS011;8435;52.184;5.406;2022-12-18T08:43:29;17.67;;;12.90;;
16642;SDS011;8435;52.184;5.406;2022-12-18T08:46:14;18.30;;;12.67;;
16642;SDS011;8435;52.184;5.406;2022-12-18T08:48:41;15.43;;;12.30;;
16642;SDS011;8435;52.184;5.406;2022-12-18T08:51:08;17.80;;;13.33;;
16642;SDS011;8435;52.184;5.406;2022-12-18T08:53:35;17.73;;;13.47;;
16642;SDS011;8435;52.184;5.406;2022-12-18T08:56:02;16.67;;;13.80;;
16642;SDS011;8435;52.184;5.406;2022-12-18T08:58:29;17.30;;;13.47;;
16642;SDS011;8435;52.184;5.406;2022-12-18T09:00:59;15.90;;;13.00;;
16642;SDS011;8435;52.184;5.406;2022-12-18T09:03:28;15.60;;;13.13;;
16642;SDS011;8435;52.184;5.406;2022-12-18T09:05:54;18.37;;;13.07;;
16642;SDS011;8435;52.184;5.406;2022-12-18T09:08:21;16.10;;;12.30;;
16642;SDS011;8435;52.184;5.406;2022-12-18T09:10:49;17.27;;;12.83;;
16642;SDS011;8435;52.184;5.406;2022-12-18T09:13:16;20.43;;;13.40;;
16642;SDS011;8435;52.184;5.406;2022-12-18T09:15:45;19.53;;;13.90;;
16642;SDS011;8435;52.184;5.406;2022-12-18T09:18:13;18.93;;;13.67;;
16642;SDS011;8435;52.184;5.406;2022-12-18T09:20:42;17.53;;;13.33;;
16642;SDS011;8435;52.184;5.406;2022-12-18T09:23:09;20.07;;;13.50;;
16642;SDS011;8435;52.184;5.406;2022-12-18T09:25:36;18.40;;;13.50;;
16642;SDS011;8435;52.184;5.406;2022-12-18T09:28:04;18.30;;;13.97;;
16642;SDS011;8435;52.184;5.406;2022-12-18T09:30:32;16.50;;;13.00;;
16642;SDS011;8435;52.184;5.406;2022-12-18T09:32:59;17.50;;;13.10;;
16642;SDS011;8435;52.184;5.406;2022-12-18T09:35:26;16.33;;;11.97;;
16642;SDS011;8435;52.184;5.406;2022-12-18T09:37:55;16.10;;;12.83;;
16642;SDS011;8435;52.184;5.406;2022-12-18T09:40:22;17.23;;;13.40;;
16642;SDS011;8435;52.184;5.406;2022-12-18T09:42:52;18.40;;;12.80;;
16642;SDS011;8435;52.184;5.406;2022-12-18T09:45:23;15.57;;;12.30;;
16642;SDS011;8435;52.184;5.406;2022-12-18T09:47:50;18.27;;;12.73;;
16642;SDS011;8435;52.184;5.406;2022-12-18T09:50:22;17.07;;;13.17;;
16642;SDS011;8435;52.184;5.406;2022-12-18T09:52:55;15.43;;;12.17;;
16642;SDS011;8435;52.184;5.406;2022-12-18T09:55:24;19.97;;;13.10;;
16642;SDS011;8435;52.184;5.406;2022-12-18T09:57:56;15.53;;;12.50;;
16642;SDS011;8435;52.184;5.406;2022-12-18T10:00:26;19.17;;;13.03;;
16642;SDS011;8435;52.184;5.406;2022-12-18T10:02:55;15.87;;;12.20;;
16642;SDS011;8435;52.184;5.406;2022-12-18T10:05:29;15.60;;;12.13;;
16642;SDS011;8435;52.184;5.406;2022-12-18T10:08:05;16.63;;;12.03;;
16642;SDS011;8435;52.184;5.406;2022-12-18T10:10:40;21.07;;;15.57;;
16642;SDS011;8435;52.184;5.406;2022-12-18T10:13:15;20.50;;;15.30;;
16642;SDS011;8435;52.184;5.406;2022-12-18T10:15:53;16.73;;;12.63;;
16642;SDS011;8435;52.184;5.406;2022-12-18T10:18:30;16.53;;;12.27;;
16642;SDS011;8435;52.184;5.406;2022-12-18T10:21:07;15.67;;;12.47;;
16642;SDS011;8435;52.184;5.406;2022-12-18T10:23:42;13.80;;;11.30;;
16642;SDS011;8435;52.184;5.406;2022-12-18T10:26:17;14.53;;;11.60;;
16642;SDS011;8435;52.184;5.406;2022-12-18T10:28:44;15.60;;;11.83;;
16642;SDS011;8435;52.184;5.406;2022-12-18T10:31:12;15.37;;;11.47;;
16642;SDS011;8435;52.184;5.406;2022-12-18T10:33:42;13.83;;;11.07;;
16642;SDS011;8435;52.184;5.406;2022-12-18T10:36:09;15.03;;;11.50;;
16642;SDS011;8435;52.184;5.406;2022-12-18T10:38:36;15.03;;;11.57;;
16642;SDS011;8435;52.184;5.406;2022-12-18T10:41:05;15.07;;;11.73;;
16642;SDS011;8435;52.184;5.406;2022-12-18T10:43:37;16.23;;;11.47;;
16642;SDS011;8435;52.184;5.406;2022-12-18T10:46:12;14.10;;;10.83;;
16642;SDS011;8435;52.184;5.406;2022-12-18T10:48:52;15.23;;;11.13;;
16642;SDS011;8435;52.184;5.406;2022-12-18T10:51:20;17.30;;;11.30;;
16642;SDS011;8435;52.184;5.406;2022-12-18T10:53:54;15.17;;;11.03;;
16642;SDS011;8435;52.184;5.406;2022-12-18T10:56:25;12.10;;;10.40;;
16642;SDS011;8435;52.184;5.406;2022-12-18T10:59:00;14.57;;;10.60;;
16642;SDS011;8435;52.184;5.406;2022-12-18T11:01:31;12.57;;;10.10;;
16642;SDS011;8435;52.184;5.406;2022-12-18T11:04:15;20.57;;;14.60;;
16642;SDS011;8435;52.184;5.406;2022-12-18T11:06:52;16.90;;;11.63;;
16642;SDS011;8435;52.184;5.406;2022-12-18T11:09:24;13.93;;;11.27;;
16642;SDS011;8435;52.184;5.406;2022-12-18T11:11:54;16.17;;;11.07;;
16642;SDS011;8435;52.184;5.406;2022-12-18T11:14:23;14.37;;;9.90;;
16642;SDS011;8435;52.184;5.406;2022-12-18T11:16:52;15.23;;;10.73;;
16642;SDS011;8435;52.184;5.406;2022-12-18T11:19:22;13.53;;;10.53;;
16642;SDS011;8435;52.184;5.406;2022-12-18T11:22:01;13.40;;;10.07;;
16642;SDS011;8435;52.184;5.406;2022-12-18T11:24:49;12.53;;;9.77;;
16642;SDS011;8435;52.184;5.406;2022-12-18T11:27:20;13.93;;;10.13;;
16642;SDS011;8435;52.184;5.406;2022-12-18T11:29:47;15.23;;;10.50;;
16642;SDS011;8435;52.184;5.406;2022-12-18T11:32:25;14.97;;;11.13;;
16642;SDS011;8435;52.184;5.406;2022-12-18T11:34:58;13.93;;;10.37;;
16642;SDS011;8435;52.184;5.406;2022-12-18T11:37:29;12.83;;;10.40;;
16642;SDS011;8435;52.184;5.406;2022-12-18T11:39:57;14.00;;;10.07;;
16642;SDS011;8435;52.184;5.406;2022-12-18T11:42:30;12.10;;;9.23;;
16642;SDS011;8435;52.184;5.406;2022-12-18T11:45:02;14.67;;;10.93;;
16642;SDS011;8435;52.184;5.406;2022-12-18T11:47:42;11.60;;;9.30;;
16642;SDS011;8435;52.184;5.406;2022-12-18T11:50:12;12.03;;;9.53;;
16642;SDS011;8435;52.184;5.406;2022-12-18T11:52:43;12.27;;;9.47;;
16642;SDS011;8435;52.184;5.406;2022-12-18T11:55:11;19.77;;;13.80;;
16642;SDS011;8435;52.184;5.406;2022-12-18T11:57:43;13.13;;;10.80;;
16642;SDS011;8435;52.184;5.406;2022-12-18T12:00:18;12.10;;;9.97;;
16642;SDS011;8435;52.184;5.406;2022-12-18T12:02:56;14.03;;;10.03;;
16642;SDS011;8435;52.184;5.406;2022-12-18T12:05:49;13.67;;;10.00;;
16642;SDS011;8435;52.184;5.406;2022-12-18T12:08:30;12.90;;;9.80;;
16642;SDS011;8435;52.184;5.406;2022-12-18T12:11:05;11.53;;;9.27;;
16642;SDS011;8435;52.184;5.406;2022-12-18T12:13:43;12.40;;;10.07;;
16642;SDS011;8435;52.184;5.406;2022-12-18T12:16:21;15.10;;;10.67;;
16642;SDS011;8435;52.184;5.406;2022-12-18T12:18:55;13.93;;;9.73;;
16642;SDS011;8435;52.184;5.406;2022-12-18T12:21:33;14.57;;;10.27;;
16642;SDS011;8435;52.184;5.406;2022-12-18T12:24:09;11.87;;;9.40;;
16642;SDS011;8435;52.184;5.406;2022-12-18T12:26:49;12.80;;;9.87;;
16642;SDS011;8435;52.184;5.406;2022-12-18T12:29:29;11.83;;;9.70;;
16642;SDS011;8435;52.184;5.406;2022-12-18T12:32:07;12.23;;;9.60;;
16642;SDS011;8435;52.184;5.406;2022-12-18T12:34:45;15.03;;;10.50;;
16642;SDS011;8435;52.184;5.406;2022-12-18T12:37:24;13.20;;;10.77;;
16642;SDS011;8435;52.184;5.406;2022-12-18T12:39:59;12.00;;;10.00;;
16642;SDS011;8435;52.184;5.406;2022-12-18T12:42:30;13.13;;;10.07;;
16642;SDS011;8435;52.184;5.406;2022-12-18T12:45:21;14.37;;;10.37;;
16642;SDS011;8435;52.184;5.406;2022-12-18T12:47:52;13.43;;;10.30;;
16642;SDS011;8435;52.184;5.406;2022-12-18T12:50:20;12.40;;;9.83;;
16642;SDS011;8435;52.184;5.406;2022-12-18T12:52:49;12.83;;;10.40;;
16642;SDS011;8435;52.184;5.406;2022-12-18T12:55:20;12.53;;;10.13;;
16642;SDS011;8435;52.184;5.406;2022-12-18T12:57:51;13.50;;;11.47;;
16642;SDS011;8435;52.184;5.406;2022-12-18T13:00:26;14.10;;;10.60;;
16642;SDS011;8435;52.184;5.406;2022-12-18T13:03:04;11.27;;;9.93;;
16642;SDS011;8435;52.184;5.406;2022-12-18T13:05:38;12.90;;;10.07;;
16642;SDS011;8435;52.184;5.406;2022-12-18T13:08:12;13.17;;;10.37;;
16642;SDS011;8435;52.184;5.406;2022-12-18T13:10:49;15.23;;;11.00;;
16642;SDS011;8435;52.184;5.406;2022-12-18T13:13:40;13.43;;;11.10;;
16642;SDS011;8435;52.184;5.406;2022-12-18T13:16:16;13.50;;;10.37;;
16642;SDS011;8435;52.184;5.406;2022-12-18T13:18:48;14.57;;;11.10;;
16642;SDS011;8435;52.184;5.406;2022-12-18T13:21:18;12.63;;;10.07;;
16642;SDS011;8435;52.184;5.406;2022-12-18T13:23:49;15.23;;;10.57;;
16642;SDS011;8435;52.184;5.406;2022-12-18T13:26:29;12.63;;;10.57;;
16642;SDS011;8435;52.184;5.406;2022-12-18T13:29:00;17.43;;;10.60;;
16642;SDS011;8435;52.184;5.406;2022-12-18T13:34:34;15.80;;;11.07;;
16642;SDS011;8435;52.184;5.406;2022-12-18T13:43:28;14.70;;;10.97;;
16642;SDS011;8435;52.184;5.406;2022-12-18T13:45:59;13.83;;;10.73;;
16642;SDS011;8435;52.184;5.406;2022-12-18T13:48:29;15.30;;;11.83;;
16642;SDS011;8435;52.184;5.406;2022-12-18T13:51:00;14.63;;;11.50;;
16642;SDS011;8435;52.184;5.406;2022-12-18T13:53:30;16.57;;;11.50;;
16642;SDS011;8435;52.184;5.406;2022-12-18T13:56:03;15.13;;;11.43;;
16642;SDS011;8435;52.184;5.406;2022-12-18T13:58:31;14.23;;;10.93;;
16642;SDS011;8435;52.184;5.406;2022-12-18T14:00:58;15.73;;;11.23;;
16642;SDS011;8435;52.184;5.406;2022-12-18T14:03:27;17.43;;;11.93;;
16642;SDS011;8435;52.184;5.406;2022-12-18T14:05:59;14.67;;;11.03;;
16642;SDS011;8435;52.184;5.406;2022-12-18T14:08:33;15.33;;;11.13;;
16642;SDS011;8435;52.184;5.406;2022-12-18T14:11:03;16.63;;;11.77;;
16642;SDS011;8435;52.184;5.406;2022-12-18T14:13:32;16.90;;;12.07;;
16642;SDS011;8435;52.184;5.406;2022-12-18T14:16:02;14.57;;;11.40;;
16642;SDS011;8435;52.184;5.406;2022-12-18T14:18:33;16.23;;;12.20;;
16642;SDS011;8435;52.184;5.406;2022-12-18T14:21:06;16.27;;;12.70;;
16642;SDS011;8435;52.184;5.406;2022-12-18T14:23:41;18.23;;;12.53;;
16642;SDS011;8435;52.184;5.406;2022-12-18T14:26:20;18.17;;;13.87;;
16642;SDS011;8435;52.184;5.406;2022-12-18T14:28:48;17.77;;;13.73;;
16642;SDS011;8435;52.184;5.406;2022-12-18T14:31:19;17.43;;;12.97;;
16642;SDS011;8435;52.184;5.406;2022-12-18T14:33:46;16.90;;;13.50;;
16642;SDS011;8435;52.184;5.406;2022-12-18T14:36:16;14.07;;;12.57;;
16642;SDS011;8435;52.184;5.406;2022-12-18T14:38:47;14.50;;;11.60;;
16642;SDS011;8435;52.184;5.406;2022-12-18T14:41:16;14.50;;;10.93;;
16642;SDS011;8435;52.184;5.406;2022-12-18T14:43:45;14.50;;;10.90;;
16642;SDS011;8435;52.184;5.406;2022-12-18T14:46:28;14.70;;;10.90;;
16642;SDS011;8435;52.184;5.406;2022-12-18T14:48:59;13.50;;;10.63;;
16642;SDS011;8435;52.184;5.406;2022-12-18T14:51:29;16.80;;;11.70;;
16642;SDS011;8435;52.184;5.406;2022-12-18T14:53:57;14.30;;;11.40;;
16642;SDS011;8435;52.184;5.406;2022-12-18T14:56:26;14.80;;;10.80;;
16642;SDS011;8435;52.184;5.406;2022-12-18T14:58:55;16.10;;;11.17;;
16642;SDS011;8435;52.184;5.406;2022-12-18T15:01:25;15.83;;;12.20;;
16642;SDS011;8435;52.184;5.406;2022-12-18T15:03:55;13.73;;;11.37;;